Millersburg, Indiana
Current Conditions -  °F | °C
As of 12:53 PM on Tuesday 21 Oct 2014 (Local Time) from KGSH Reporting Station
Overcast Overcast  
Wind Chill: 51°   Ceiling: 2200
Heat Index: 51°   Visibility: 10mi
Dew Point: 43°   Wind: 12mph
Humidity: 74%   Direction: 10°N
Pressure: 30.1"   Gusts: NA
Location:  41.53°N, 85.69°W
Report Text: KGSH 211653Z AUTO 01010KT 10SM OVC022 11/06 A3010 RMK AO2 SLP196 T01060061
Loading
Personal Weather Stations






























Interactive Weather Map
Tropical Storm Tracking
New forecast layout! Learn more

10-Day Weather Forecast

Advertisements
Track Severe Weather on mobile